createdAt,value
2019-03-24T00:01:41.074Z,95682.22
2019-03-24T00:04:02.704Z,95677.80
2019-03-24T00:06:28.715Z,95679.14
2019-03-24T00:08:54.787Z,95686.30
2019-03-24T00:11:20.779Z,95682.30
2019-03-24T00:13:46.774Z,95682.30
2019-03-24T00:16:12.771Z,95677.88
2019-03-24T00:18:38.768Z,95681.05
2019-03-24T00:21:04.768Z,95683.30
2019-03-24T00:23:30.766Z,95679.41
2019-03-24T00:25:56.759Z,95682.91
2019-03-24T00:28:22.758Z,95690.51
2019-03-24T00:30:48.752Z,95686.92
2019-03-24T00:33:14.758Z,95686.59
2019-03-24T00:35:40.756Z,95681.25
2019-03-24T00:38:06.780Z,95678.58
2019-03-24T00:40:32.782Z,95686.70
2019-03-24T00:42:58.767Z,95678.16
2019-03-24T00:45:24.878Z,95679.61
2019-03-24T00:47:50.870Z,95678.77
2019-03-24T00:50:16.866Z,95674.27
2019-03-24T00:52:42.865Z,95677.86
2019-03-24T00:55:08.864Z,95678.36
2019-03-24T00:57:37.363Z,95678.36
2019-03-24T01:00:00.865Z,95669.96
2019-03-24T01:02:26.870Z,95668.62
2019-03-24T01:04:52.863Z,95667.88
2019-03-24T01:07:18.862Z,95666.88
2019-03-24T01:09:44.859Z,95665.63
2019-03-24T01:12:10.860Z,95665.20
2019-03-24T01:14:36.857Z,95662.66
2019-03-24T01:17:02.855Z,95661.73
2019-03-24T01:19:28.854Z,95663.15
2019-03-24T01:21:54.984Z,95662.66
2019-03-24T01:24:20.974Z,95657.39
2019-03-24T01:26:46.973Z,95660.06
2019-03-24T01:29:12.970Z,95660.48
2019-03-24T01:31:38.968Z,95664.06
2019-03-24T01:34:04.971Z,95658.34
2019-03-24T01:36:30.984Z,95659.27
2019-03-24T01:38:56.994Z,95662.23
2019-03-24T01:41:23.012Z,95664.48
2019-03-24T01:43:48.978Z,95656.06
2019-03-24T01:46:14.986Z,95662.73
2019-03-24T01:48:40.984Z,95659.27
2019-03-24T01:51:06.985Z,95661.40
2019-03-24T01:53:32.985Z,95664.06
2019-03-24T01:55:59.005Z,95661.52
2019-03-24T01:58:25.049Z,95661.93
2019-03-24T02:00:51.042Z,95659.77
2019-03-24T02:03:17.050Z,95653.50
2019-03-24T02:05:43.086Z,95651.34
2019-03-24T02:08:09.044Z,95650.84
2019-03-24T02:10:35.042Z,95651.87
2019-03-24T02:13:01.045Z,95647.45
2019-03-24T02:15:27.079Z,95645.28
2019-03-24T02:17:53.220Z,95644.25
2019-03-24T02:20:19.220Z,95639.86
2019-03-24T02:22:45.238Z,95635.52
2019-03-24T02:25:11.230Z,95637.39
2019-03-24T02:27:37.227Z,95637.27
2019-03-24T02:30:03.235Z,95641.69
2019-03-24T02:32:29.239Z,95637.77
2019-03-24T02:34:55.222Z,95638.19
2019-03-24T02:37:21.217Z,95640.86
2019-03-24T02:39:47.251Z,95639.52
2019-03-24T02:42:13.243Z,95639.11
2019-03-24T02:44:39.244Z,95642.30
2019-03-24T02:47:05.239Z,95641.39
2019-03-24T02:49:31.237Z,95645.78
2019-03-24T02:51:57.247Z,95639.64
2019-03-24T02:54:23.234Z,95642.30
2019-03-24T02:56:49.235Z,95642.30
2019-03-24T02:59:15.231Z,95643.22
2019-03-24T03:01:41.237Z,95646.81
2019-03-24T03:04:07.263Z,95643.72
2019-03-24T03:06:33.261Z,95642.50
2019-03-24T03:08:59.255Z,95635.83
2019-03-24T03:11:25.260Z,95634.08
2019-03-24T03:13:51.274Z,95629.16
2019-03-24T03:16:17.266Z,95636.25
2019-03-24T03:18:43.288Z,95641.78
2019-03-24T03:21:09.282Z,95648.25
2019-03-24T03:23:35.277Z,95645.67
2019-03-24T03:26:01.280Z,95652.34
2019-03-24T03:28:27.280Z,95651.84
2019-03-24T03:30:53.275Z,95653.67
2019-03-24T03:33:19.272Z,95653.25
2019-03-24T03:35:45.268Z,95654.93
2019-03-24T03:38:11.271Z,95651.42
2019-03-24T03:40:37.268Z,95653.67
2019-03-24T03:43:03.269Z,95653.78
2019-03-24T03:45:29.329Z,95656.84
2019-03-24T03:47:55.330Z,95652.04
2019-03-24T03:50:21.319Z,95654.37
2019-03-24T03:52:47.315Z,95657.88
2019-03-24T03:55:13.314Z,95657.79
2019-03-24T03:57:39.340Z,95653.87
2019-03-24T04:00:05.348Z,95659.20
2019-03-24T04:02:31.355Z,95664.95
2019-03-24T04:04:57.353Z,95668.12
2019-03-24T04:07:23.348Z,95667.33
2019-03-24T04:09:49.352Z,95673.47
2019-03-24T04:12:15.350Z,95674.38
2019-03-24T04:14:41.474Z,95671.33
2019-03-24T04:17:08.179Z,95675.83
2019-03-24T04:19:33.462Z,95686.00
2019-03-24T04:21:59.454Z,95682.08
2019-03-24T04:24:25.472Z,95684.75
2019-03-24T04:26:51.477Z,95682.08
2019-03-24T04:29:17.462Z,95683.83
2019-03-24T04:31:43.481Z,95678.50
2019-03-24T04:34:09.465Z,95678.99
2019-03-24T04:36:35.467Z,95683.00
2019-03-24T04:39:01.463Z,95683.53
2019-03-24T04:41:27.471Z,95685.78
2019-03-24T04:43:53.475Z,95681.77
2019-03-24T04:46:19.468Z,95686.69
2019-03-24T04:48:45.471Z,95688.03
2019-03-24T04:51:11.471Z,95693.36
2019-03-24T04:53:37.470Z,95685.86
2019-03-24T04:56:03.468Z,95687.19
2019-03-24T04:58:29.469Z,95684.94
2019-03-24T05:00:55.513Z,95689.36
2019-03-24T05:03:21.537Z,95691.72
2019-03-24T05:05:47.532Z,95697.06
2019-03-24T05:08:13.528Z,95690.47
2019-03-24T05:10:39.527Z,95701.98
2019-03-24T05:13:05.524Z,95698.89
2019-03-24T05:15:31.532Z,95699.31
2019-03-24T05:17:57.526Z,95702.89
2019-03-24T05:20:23.524Z,95704.73
2019-03-24T05:22:50.107Z,95709.56
2019-03-24T05:25:16.139Z,95711.40
2019-03-24T05:27:42.138Z,95716.31
2019-03-24T05:30:08.130Z,95713.65
2019-03-24T05:32:34.132Z,95713.98
2019-03-24T05:35:00.285Z,95713.80
2019-03-24T05:37:26.122Z,95713.88
2019-03-24T05:39:52.125Z,95723.94
2019-03-24T05:42:18.128Z,95723.13
2019-03-24T05:44:44.127Z,95728.97
2019-03-24T05:47:10.158Z,95729.80
2019-03-24T05:49:36.155Z,95728.27
2019-03-24T05:52:02.153Z,95728.27
2019-03-24T05:54:28.159Z,95728.27
2019-03-24T05:56:54.157Z,95721.19
2019-03-24T05:59:20.157Z,95724.47
2019-03-24T06:01:46.147Z,95723.44
2019-03-24T06:04:12.143Z,95724.77
2019-03-24T06:06:38.134Z,95727.02
2019-03-24T06:09:04.164Z,95727.75
2019-03-24T06:11:30.161Z,95722.33
2019-03-24T06:13:56.156Z,95728.81
2019-03-24T06:16:22.160Z,95730.14
2019-03-24T06:18:48.151Z,95733.64
2019-03-24T06:21:14.240Z,95732.62
2019-03-24T06:23:40.236Z,95733.23
2019-03-24T06:26:06.273Z,95729.53
2019-03-24T06:28:32.271Z,95728.11
2019-03-24T06:30:58.269Z,95727.28
2019-03-24T06:33:24.268Z,95727.59
2019-03-24T06:35:50.268Z,95729.75
2019-03-24T06:38:16.268Z,95733.26
2019-03-24T06:40:42.268Z,95734.67
2019-03-24T06:43:08.455Z,95733.14
2019-03-24T06:45:34.452Z,95733.64
2019-03-24T06:48:00.471Z,95738.48
2019-03-24T06:50:26.462Z,95737.98
2019-03-24T06:52:52.543Z,95743.82
2019-03-24T06:55:18.540Z,95729.98
2019-03-24T06:57:44.537Z,95735.11
2019-03-24T07:00:10.603Z,95740.61
2019-03-24T07:02:36.622Z,95737.86
2019-03-24T07:05:02.619Z,95736.55
2019-03-24T07:07:28.614Z,95736.97
2019-03-24T07:09:54.642Z,95734.52
2019-03-24T07:12:20.642Z,95734.44
2019-03-24T07:14:46.657Z,95731.47
2019-03-24T07:17:12.687Z,95729.83
2019-03-24T07:19:38.682Z,95729.30
2019-03-24T07:22:04.729Z,95730.13
2019-03-24T07:24:30.680Z,95736.30
2019-03-24T07:26:56.691Z,95734.63
2019-03-24T07:29:22.685Z,95728.80
2019-03-24T07:31:48.679Z,95729.94
2019-03-24T07:34:14.675Z,95728.19
2019-03-24T07:36:40.680Z,95726.23
2019-03-24T07:39:06.679Z,95731.58
2019-03-24T07:41:32.672Z,95737.33
2019-03-24T07:43:58.675Z,95730.16
2019-03-24T07:46:24.671Z,95727.98
2019-03-24T07:48:50.704Z,95728.83
2019-03-24T07:51:16.745Z,95725.66
2019-03-24T07:53:42.792Z,95722.98
2019-03-24T07:56:08.784Z,95728.94
2019-03-24T07:58:34.798Z,95729.47
2019-03-24T08:01:00.776Z,95728.94
2019-03-24T08:03:26.789Z,95726.59
2019-03-24T08:05:52.800Z,95723.40
2019-03-24T08:08:18.800Z,95723.63
2019-03-24T08:10:44.801Z,95716.11
2019-03-24T08:13:10.815Z,95719.73
2019-03-24T08:15:36.823Z,95719.92
2019-03-24T08:18:02.816Z,95716.87
2019-03-24T08:20:28.844Z,95723.13
2019-03-24T08:22:54.846Z,95713.58
2019-03-24T08:25:20.860Z,95716.14
2019-03-24T08:27:46.860Z,95707.93
2019-03-24T08:30:12.860Z,95701.17
2019-03-24T08:32:38.942Z,95703.73
2019-03-24T08:35:04.939Z,95702.39
2019-03-24T08:37:30.942Z,95697.06
2019-03-24T08:39:56.931Z,95698.39
2019-03-24T08:42:22.933Z,95690.19
2019-03-24T08:44:48.933Z,95682.70
2019-03-24T08:47:14.964Z,95683.92
2019-03-24T08:49:40.962Z,95679.63
2019-03-24T08:52:06.957Z,95676.84
2019-03-24T08:54:32.956Z,95675.00
2019-03-24T08:56:58.957Z,95670.69
2019-03-24T08:59:24.954Z,95664.02
2019-03-24T09:01:50.958Z,95665.36
2019-03-24T09:04:16.961Z,95665.02
2019-03-24T09:06:42.959Z,95659.08
2019-03-24T09:09:08.986Z,95650.14
2019-03-24T09:11:34.979Z,95648.39
2019-03-24T09:14:00.983Z,95646.84
2019-03-24T09:16:27.005Z,95644.59
2019-03-24T09:18:53.194Z,95642.92
2019-03-24T09:21:19.671Z,95638.11
2019-03-24T09:23:45.026Z,95636.86
2019-03-24T09:26:11.454Z,95633.88
2019-03-24T09:28:37.451Z,95628.21
2019-03-24T09:31:03.453Z,95634.50
2019-03-24T09:33:29.452Z,95632.33
2019-03-24T09:35:55.451Z,95634.16
2019-03-24T09:38:21.456Z,95632.02
2019-03-24T09:40:47.447Z,95629.94
2019-03-24T09:43:13.458Z,95629.44
2019-03-24T09:45:39.456Z,95626.88
2019-03-24T09:48:05.450Z,95622.46
2019-03-24T09:50:31.540Z,95623.38
2019-03-24T09:52:57.452Z,95615.45
2019-03-24T09:55:23.449Z,95619.08
2019-03-24T09:57:49.447Z,95611.56
2019-03-24T10:00:15.451Z,95620.98
2019-03-24T10:02:41.486Z,95617.94
2019-03-24T10:05:07.507Z,95614.84
2019-03-24T10:07:33.512Z,95615.34
2019-03-24T10:09:59.502Z,95610.02
2019-03-24T10:12:25.501Z,95611.34
2019-03-24T10:14:51.496Z,95606.92
2019-03-24T10:17:17.500Z,95609.17
2019-03-24T10:19:43.500Z,95603.95
2019-03-24T10:22:09.494Z,95602.62
2019-03-24T10:24:35.493Z,95603.12
2019-03-24T10:27:01.501Z,95598.61
2019-03-24T10:29:27.507Z,95597.28
2019-03-24T10:31:53.511Z,95588.36
2019-03-24T10:34:19.513Z,95584.23
2019-03-24T10:36:45.508Z,95579.81
2019-03-24T10:39:11.511Z,95570.69
2019-03-24T10:41:37.511Z,95573.50
2019-03-24T10:44:03.515Z,95570.30
2019-03-24T10:46:29.513Z,95565.07
2019-03-24T10:48:55.512Z,95565.37
2019-03-24T10:51:21.529Z,95554.20
2019-03-24T10:53:47.536Z,95552.75
2019-03-24T10:56:13.548Z,95547.11
2019-03-24T10:58:39.557Z,95537.34
2019-03-24T11:01:05.587Z,95532.22
2019-03-24T11:03:31.582Z,95534.78
2019-03-24T11:05:57.574Z,95532.94
2019-03-24T11:08:23.582Z,95523.09
2019-03-24T11:10:49.581Z,95515.80
2019-03-24T11:13:15.582Z,95518.78
2019-03-24T11:15:41.577Z,95510.89
2019-03-24T11:18:07.617Z,95509.35
2019-03-24T11:20:33.639Z,95505.22
2019-03-24T11:22:59.635Z,95502.46
2019-03-24T11:25:25.639Z,95497.54
2019-03-24T11:27:51.637Z,95493.83
2019-03-24T11:30:17.715Z,95491.08
2019-03-24T11:32:43.729Z,95487.08
2019-03-24T11:35:09.729Z,95488.20
2019-03-24T11:37:35.726Z,95485.74
2019-03-24T11:40:01.808Z,95494.55
2019-03-24T11:42:27.799Z,95490.96
2019-03-24T11:44:53.790Z,95479.45
2019-03-24T11:47:26.451Z,95478.66
2019-03-24T11:49:47.253Z,95478.12
2019-03-24T11:52:11.944Z,95477.84
2019-03-24T11:54:37.958Z,95467.88
2019-03-24T11:57:03.962Z,95464.70
2019-03-24T11:59:29.955Z,95461.64
2019-03-24T12:01:55.994Z,95460.09
2019-03-24T12:04:22.001Z,95454.55
2019-03-24T12:06:48.179Z,95450.97
2019-03-24T12:09:14.376Z,95441.09
2019-03-24T12:11:40.379Z,95440.80
2019-03-24T12:14:06.384Z,95440.06
2019-03-24T12:16:32.379Z,95436.39
2019-03-24T12:18:58.387Z,95433.80
2019-03-24T12:21:24.396Z,95434.84
2019-03-24T12:23:50.393Z,95431.03
2019-03-24T12:26:16.402Z,95436.37
2019-03-24T12:28:42.401Z,95429.30
2019-03-24T12:31:08.418Z,95428.17
2019-03-24T12:33:34.416Z,95420.77
2019-03-24T12:36:00.446Z,95420.37
2019-03-24T12:38:26.447Z,95418.81
2019-03-24T12:40:52.463Z,95409.28
2019-03-24T12:43:19.725Z,95407.00
2019-03-24T12:45:44.473Z,95404.87
2019-03-24T12:48:10.496Z,95400.12
2019-03-24T12:50:36.469Z,95396.53
2019-03-24T12:53:02.495Z,95396.02
2019-03-24T12:55:28.508Z,95394.91
2019-03-24T12:57:54.510Z,95390.56
2019-03-24T13:00:20.510Z,95393.24
2019-03-24T13:02:46.508Z,95387.48
2019-03-24T13:05:12.506Z,95382.47
2019-03-24T13:07:38.502Z,95378.77
2019-03-24T13:10:04.499Z,95376.59
2019-03-24T13:12:30.512Z,95380.93
2019-03-24T13:14:56.514Z,95372.09
2019-03-24T13:17:22.516Z,95367.66
2019-03-24T13:19:48.548Z,95367.78
2019-03-24T13:22:14.547Z,95363.98
2019-03-24T13:24:40.543Z,95360.78
2019-03-24T13:27:06.558Z,95354.94
2019-03-24T13:29:32.577Z,95357.41
2019-03-24T13:31:58.575Z,95350.39
2019-03-24T13:34:24.571Z,95348.77
2019-03-24T13:36:50.573Z,95347.22
2019-03-24T13:39:16.642Z,95346.80
2019-03-24T13:41:42.722Z,95339.92
2019-03-24T13:44:08.780Z,95337.95
2019-03-24T13:46:34.786Z,95338.38
2019-03-24T13:49:00.801Z,95328.34
2019-03-24T13:51:26.807Z,95332.02
2019-03-24T13:53:52.799Z,95322.38
2019-03-24T13:56:18.856Z,95322.25
2019-03-24T13:58:44.854Z,95317.71
2019-03-24T14:01:10.863Z,95317.71
2019-03-24T14:03:36.859Z,95311.56
2019-03-24T14:06:02.862Z,95311.69
2019-03-24T14:08:28.859Z,95312.52
2019-03-24T14:10:54.861Z,95313.64
2019-03-24T14:13:20.858Z,95307.05
2019-03-24T14:15:46.883Z,95303.34
2019-03-24T14:18:12.900Z,95304.09
2019-03-24T14:20:43.795Z,95308.69
2019-03-24T14:23:04.905Z,95303.34
2019-03-24T14:25:31.095Z,95299.54
2019-03-24T14:27:57.091Z,95296.58
2019-03-24T14:30:23.114Z,95296.66
2019-03-24T14:32:49.114Z,95295.33
2019-03-24T14:35:15.139Z,95295.74
2019-03-24T14:37:41.151Z,95297.08
2019-03-24T14:40:07.180Z,95291.53
2019-03-24T14:42:33.179Z,95293.61
2019-03-24T14:44:59.416Z,95293.19
2019-03-24T14:47:25.455Z,95285.86
2019-03-24T14:49:51.451Z,95290.41
2019-03-24T14:52:18.147Z,95290.99
2019-03-24T14:54:44.153Z,95281.64
2019-03-24T14:57:10.710Z,95278.55
2019-03-24T14:59:36.767Z,95279.89
2019-03-24T15:02:02.765Z,95283.34
2019-03-24T15:04:28.797Z,95282.80
2019-03-24T15:06:54.847Z,95278.55
2019-03-24T15:09:20.848Z,95286.01
2019-03-24T15:11:46.887Z,95285.17
2019-03-24T15:14:12.901Z,95283.72
2019-03-24T15:16:41.981Z,95282.00
2019-03-24T15:19:14.618Z,95276.30
2019-03-24T15:21:40.638Z,95277.45
2019-03-24T15:24:06.636Z,95269.77
2019-03-24T15:26:32.665Z,95268.23
2019-03-24T15:28:59.075Z,95269.35
2019-03-24T15:31:25.079Z,95261.22
2019-03-24T15:33:51.087Z,95258.45
2019-03-24T15:36:17.094Z,95252.70
2019-03-24T15:38:43.103Z,95255.57
2019-03-24T15:41:09.102Z,95257.91
2019-03-24T15:43:35.166Z,95262.95
2019-03-24T15:46:01.169Z,95260.16
2019-03-24T15:48:27.171Z,95259.25
2019-03-24T15:50:53.198Z,95256.36
2019-03-24T15:53:19.199Z,95259.23
2019-03-24T15:55:45.202Z,95256.48
2019-03-24T15:58:11.202Z,95256.36
2019-03-24T16:00:37.215Z,95254.39
2019-03-24T16:03:03.230Z,95257.90
2019-03-24T16:05:29.265Z,95254.59
2019-03-24T16:07:55.311Z,95253.17
2019-03-24T16:10:21.318Z,95249.16
2019-03-24T16:12:47.475Z,95251.21
2019-03-24T16:15:13.462Z,95250.09
2019-03-24T16:17:39.467Z,95265.28
2019-03-24T16:20:05.460Z,95255.01
2019-03-24T16:22:31.463Z,95253.67
2019-03-24T16:24:57.459Z,95258.19
2019-03-24T16:27:23.498Z,95261.06
2019-03-24T16:29:49.496Z,95263.45
2019-03-24T16:32:15.510Z,95261.57
2019-03-24T16:34:41.512Z,95266.00
2019-03-24T16:37:07.719Z,95271.26
2019-03-24T16:39:33.724Z,95270.64
2019-03-24T16:41:59.718Z,95274.56
2019-03-24T16:44:25.722Z,95273.02
2019-03-24T16:46:51.727Z,95280.95
2019-03-24T16:49:17.763Z,95276.20
2019-03-24T16:51:43.765Z,95278.70
2019-03-24T16:54:09.755Z,95271.81
2019-03-24T16:56:35.759Z,95277.24
2019-03-24T16:59:01.775Z,95278.79
2019-03-24T17:01:27.843Z,95278.29
2019-03-24T17:03:53.839Z,95282.71
2019-03-24T17:06:19.845Z,95284.14
2019-03-24T17:08:45.836Z,95286.98
2019-03-24T17:11:11.833Z,95294.80
2019-03-24T17:13:37.846Z,95293.67
2019-03-24T17:16:03.841Z,95289.78
2019-03-24T17:18:29.839Z,95294.41
2019-03-24T17:20:55.835Z,95293.70
2019-03-24T17:23:21.880Z,95292.95
2019-03-24T17:25:47.882Z,95296.67
2019-03-24T17:28:13.874Z,95290.11
2019-03-24T17:30:39.883Z,95295.95
2019-03-24T17:33:05.877Z,95293.91
2019-03-24T17:35:31.900Z,95296.16
2019-03-24T17:37:57.932Z,95298.54
2019-03-24T17:40:23.904Z,95301.39
2019-03-24T17:42:49.899Z,95305.02
2019-03-24T17:45:15.930Z,95302.93
2019-03-24T17:47:41.928Z,95310.56
2019-03-24T17:50:07.926Z,95304.09
2019-03-24T17:52:33.927Z,95302.42
2019-03-24T17:54:59.925Z,95298.13
2019-03-24T17:57:25.944Z,95293.83
2019-03-24T17:59:51.943Z,95299.88
2019-03-24T18:02:17.951Z,95297.83
2019-03-24T18:04:43.953Z,95297.30
2019-03-24T18:07:09.963Z,95295.55
2019-03-24T18:09:35.961Z,95297.30
2019-03-24T18:12:01.961Z,95302.55
2019-03-24T18:14:27.964Z,95298.22
2019-03-24T18:16:53.960Z,95297.00
2019-03-24T18:19:20.127Z,95301.92
2019-03-24T18:21:46.180Z,95304.72
2019-03-24T18:24:12.186Z,95306.97
2019-03-24T18:26:38.179Z,95306.05
2019-03-24T18:29:04.175Z,95313.53
2019-03-24T18:31:30.206Z,95303.77
2019-03-24T18:33:56.199Z,95303.05
2019-03-24T18:36:22.244Z,95304.80
2019-03-24T18:38:48.238Z,95304.80
2019-03-24T18:41:14.254Z,95306.64
2019-03-24T18:43:40.262Z,95312.10
2019-03-24T18:46:06.279Z,95305.42
2019-03-24T18:48:32.307Z,95310.34
2019-03-24T18:50:58.322Z,95304.09
2019-03-24T18:53:24.376Z,95302.88
2019-03-24T18:55:50.375Z,95304.92
2019-03-24T18:58:16.371Z,95302.04
2019-03-24T19:00:42.371Z,95302.34
2019-03-24T19:03:08.402Z,95298.45
2019-03-24T19:05:35.258Z,95296.28
2019-03-24T19:08:00.396Z,95304.30
2019-03-24T19:10:26.401Z,95314.27
2019-03-24T19:12:52.398Z,95300.83
2019-03-24T19:15:18.394Z,95308.92
2019-03-24T19:17:44.395Z,95307.80
2019-03-24T19:20:10.399Z,95313.77
2019-03-24T19:22:38.067Z,95305.42
2019-03-24T19:25:04.107Z,95310.67
2019-03-24T19:27:31.330Z,95304.50
2019-03-24T19:30:04.015Z,95304.00
2019-03-24T19:32:30.601Z,95303.67
2019-03-24T19:34:56.604Z,95301.62
2019-03-24T19:37:22.606Z,95301.95
2019-03-24T19:39:48.664Z,95302.45
2019-03-24T19:42:14.662Z,95303.07
2019-03-24T19:44:42.249Z,95299.48
2019-03-24T19:47:08.257Z,95303.58
2019-03-24T19:49:34.255Z,95299.48
2019-03-24T19:52:00.519Z,95301.20
2019-03-24T19:54:26.766Z,95303.48
2019-03-24T19:56:53.573Z,95306.16
2019-03-24T19:59:20.810Z,95304.91
2019-03-24T20:01:47.967Z,95305.84
2019-03-24T20:04:13.962Z,95310.88
2019-03-24T20:06:39.966Z,95314.14
2019-03-24T20:09:06.239Z,95307.17
2019-03-24T20:11:32.230Z,95306.55
2019-03-24T20:13:58.328Z,95309.02
2019-03-24T20:16:24.325Z,95313.02
2019-03-24T20:18:50.327Z,95307.67
2019-03-24T20:21:16.331Z,95303.38
2019-03-24T20:23:42.486Z,95306.05
2019-03-24T20:26:09.457Z,95298.66
2019-03-24T20:28:37.588Z,95293.91
2019-03-24T20:31:04.262Z,95296.28
2019-03-24T20:33:32.607Z,95296.91
2019-03-24T20:35:57.912Z,95293.73
2019-03-24T20:38:23.914Z,95283.77
2019-03-24T20:40:49.964Z,95281.09
2019-03-24T20:43:15.958Z,95285.09
2019-03-24T20:45:41.951Z,95277.91
2019-03-24T20:48:09.305Z,95280.17
2019-03-24T20:50:36.757Z,95283.26
2019-03-24T20:53:08.733Z,95285.59
2019-03-24T20:55:29.107Z,95283.84
2019-03-24T20:57:55.128Z,95285.72
2019-03-24T21:00:21.106Z,95291.98
2019-03-24T21:02:47.105Z,95292.59
2019-03-24T21:05:13.344Z,95288.59
2019-03-24T21:07:39.338Z,95283.34
2019-03-24T21:10:05.359Z,95287.77
2019-03-24T21:12:31.358Z,95288.27
2019-03-24T21:14:57.358Z,95288.68
2019-03-24T21:17:23.360Z,95288.18
2019-03-24T21:19:49.416Z,95295.77
2019-03-24T21:22:15.415Z,95300.28
2019-03-24T21:24:41.406Z,95295.36
2019-03-24T21:27:07.438Z,95290.02
2019-03-24T21:29:33.471Z,95283.96
2019-03-24T21:31:59.463Z,95276.88
2019-03-24T21:34:25.467Z,95275.95
2019-03-24T21:36:51.470Z,95274.73
2019-03-24T21:39:17.464Z,95269.39
2019-03-24T21:41:43.469Z,95270.73
2019-03-24T21:44:09.463Z,95269.69
2019-03-24T21:46:35.491Z,95264.86
2019-03-24T21:49:01.488Z,95266.02
2019-03-24T21:51:27.482Z,95268.15
2019-03-24T21:53:53.483Z,95264.77
2019-03-24T21:56:19.495Z,95261.68
2019-03-24T21:58:45.500Z,95261.80
2019-03-24T22:01:11.498Z,95259.22
2019-03-24T22:03:37.499Z,95254.70
2019-03-24T22:06:03.489Z,95255.33
2019-03-24T22:08:29.520Z,95254.08
2019-03-24T22:10:55.515Z,95253.67
2019-03-24T22:13:21.512Z,95246.61
2019-03-24T22:15:47.520Z,95246.20
2019-03-24T22:18:13.519Z,95248.53
2019-03-24T22:20:48.394Z,95238.81
2019-03-24T22:23:05.514Z,95241.98
2019-03-24T22:25:31.524Z,95240.23
2019-03-24T22:27:57.519Z,95241.69
2019-03-24T22:30:23.524Z,95243.94
2019-03-24T22:32:49.519Z,95242.70
2019-03-24T22:35:15.591Z,95240.94
2019-03-24T22:37:41.556Z,95240.94
2019-03-24T22:40:07.550Z,95247.32
2019-03-24T22:42:33.551Z,95250.41
2019-03-24T22:44:59.546Z,95253.16
2019-03-24T22:47:25.580Z,95249.28
2019-03-24T22:49:51.586Z,95252.87
2019-03-24T22:52:17.591Z,95251.12
2019-03-24T22:54:43.588Z,95251.62
2019-03-24T22:57:09.623Z,95247.23
2019-03-24T22:59:35.619Z,95242.81
2019-03-24T23:02:01.622Z,95240.64
2019-03-24T23:04:27.620Z,95242.48
2019-03-24T23:06:53.614Z,95244.35
2019-03-24T23:09:19.615Z,95246.61
2019-03-24T23:11:45.611Z,95241.27
2019-03-24T23:14:11.612Z,95245.15
2019-03-24T23:16:37.601Z,95242.19
2019-03-24T23:19:03.598Z,95235.22
2019-03-24T23:21:29.596Z,95231.72
2019-03-24T23:23:55.595Z,95232.55
2019-03-24T23:26:21.598Z,95237.56
2019-03-24T23:28:47.597Z,95239.31
2019-03-24T23:31:13.599Z,95234.89
2019-03-24T23:33:39.596Z,95234.50
2019-03-24T23:36:05.594Z,95229.25
2019-03-24T23:38:31.598Z,95228.42
2019-03-24T23:40:57.685Z,95227.09
2019-03-24T23:43:23.681Z,95227.63
2019-03-24T23:45:49.680Z,95223.62
2019-03-24T23:48:15.687Z,95226.79
2019-03-24T23:50:41.686Z,95221.16
2019-03-24T23:53:07.687Z,95220.12
2019-03-24T23:55:33.679Z,95213.16
2019-03-24T23:57:59.680Z,95206.98
